Western Neb. Rgnl/William B. Heilig Airport
KBFF : rendu visible

Aérodrome :











RETROUVEZ-NOUS SUR...

 
LOGIN :

S'inscrire | Disclaimer

   EN    FR    IT 

 









Légende :    VFR   VFR Marginal   IFR   IFR Intensif   IFR Très Intensif
Visi : 
Plafond : 
>= 8 km
>= 3000ft
5 à 8 km
1000 à 3000 ft
1500m à 5 km
500 à 1000 ft
800 à 1500m
200 à 500 ft
< 800m
< 200 ft
Symboles :   Orages  Brouillard  Fortes neiges  Fortes précipitations  Vent > 20 kt






- Altitude de l'aérodrome : 3967 ft
- Code IATA : BFF


KBFF - Western Neb. Rgnl/William B. Heilig

DERNIER METAR :
  • 042053Z AUTO 25020G25KT 10SM CLR 36/04 A2977 RMK AO2 SLP030 T03560039 58031

METARs EXPIRÉS :
  • 041953Z AUTO 26004KT 10SM FEW120 34/06 A2980 RMK AO2 LTG DSNT N SLP040 T03390056
  • 041853Z AUTO 17003KT 10SM CLR 32/07 A2984 RMK AO2 SLP055 T03220072

TAF KBFF
Valide du 04 à 18h jusqu'au 05 à 18h UTC


041720Z 0418/0518 29010KT P6SM SKC
FM042000 29012G20KT P6SM VCSH SCT110
FM050200 36008KT P6SM SCT110
FM051100 VRB04KT P6SM SCT030
FIR KZDV / Amérique du Nord



MET'MAP, la Météo Aéronautique d'un coup d'oeil ! - Copyright ORBIFLY Décembre 2007 - Disclaimer

ORBIFLY MET'MAP TEAM :

Programmation & Développement : Alexandra Zaïnal
Sur une idée originale de : Baudouin d'Aumeries
Assistance à la programmation : Marc-Olivier Méhu
Soutien technique & logistique : Manuel Goepfert

Contact : metmap@orbifly.com




SOURCES & CREDITS :

   NOAA       Earth
Advisory